M I D A S
Marine Information and Data Acquisition System
Tripno 1099 of the Zeeleeuw from 2006-03-30 06:32:14 to 2006-03-30 10:47:52
Back to CruiseResearch ActivitiesStationsMapUnderway DataData graphs

EquipmentUnitsComment
TimeDGPSUTC
LatitudeDGPSDM.mWGS84
LongitudeDGPSDM.mWGS84
TemperatureSBE03/SBE38deg celciusITS90
ConductivitySBE21S/mITS90
SalinitySBE21 Practical Salinity Units
ChlorophylAChelsea fluorimeterg/lCalibrated in Aceton
Missing or incorrect values are displayed as -999
Sea surface data collected by the RV Zeeleeuw from 2006-03-30 06:32:05 to 2006-03-30 11:00:34
Time Latitude Longitude Temperature Conductivity Salinity ChlorophylA
2006-03-30 06:33:11 51°13.613 2°56.051 -999 2.829535 27.090341 17.590375
2006-03-30 06:34:10 51°13.632 2°55.982 -999 2.853833 27.368831 17.758922
2006-03-30 06:35:10 51°13.64 2°55.949 -999 2.825917 27.055072 18.534238
2006-03-30 06:36:10 51°13.667 2°55.866 -999 2.86893 27.539546 19.511811
2006-03-30 06:37:10 51°13.7 2°55.776 -999 2.845458 27.28545 20.759059
2006-03-30 06:38:11 51°13.716 2°55.748 -999 2.792936 26.709607 21.2647
2006-03-30 06:39:10 51°13.717 2°55.74 -999 2.74135 26.131233 21.568084
2006-03-30 06:40:11 51°13.722 2°55.721 -999 2.820954 27.001281 22.511947
2006-03-30 06:41:11 51°13.797 2°55.657 -999 2.68026 25.435443 22.646785
2006-03-30 06:42:10 51°13.908 2°55.578 -999 2.515636 23.616491 22.006306
2006-03-30 06:43:10 51°14.018 2°55.5 -999 2.851041 27.293906 23.152426
2006-03-30 06:44:11 51°14.128 2°55.416 -999 2.796864 26.70015 23.320973
2006-03-30 06:45:11 51°14.238 2°55.296 -999 2.798622 26.71577 24.332255
2006-03-30 06:46:10 51°14.336 2°55.124 -999 2.710649 25.737722 24.399674
2006-03-30 06:47:10 51°14.458 2°54.949 -999 2.810304 26.832892 24.770477
2006-03-30 06:48:10 51°14.617 2°54.776 -999 3.161543 30.732852 24.197418
2006-03-30 06:49:10 51°14.805 2°54.658 -999 3.303624 32.331606 23.422101
2006-03-30 06:50:10 51°14.994 2°54.532 -999 3.320598 32.532553 23.017589
2006-03-30 06:51:10 51°15.177 2°54.408 -999 3.333743 32.684245 23.961452
2006-03-30 06:52:10 51°15.37 2°54.308 -999 3.341817 32.820888 23.725486
2006-03-30 06:53:10 51°15.561 2°54.161 -999 3.346269 32.899693 23.388392
2006-03-30 06:54:10 51°15.755 2°54.009 -999 3.349477 32.934693 23.320973
2006-03-30 06:55:10 51°15.945 2°53.844 -999 3.352273 33.001885 24.163708
2006-03-30 06:56:10 51°16.134 2°53.684 -999 3.344303 32.969475 24.534512
2006-03-30 06:57:10 51°16.321 2°53.508 -999 3.348444 33.036333 24.60193
2006-03-30 06:58:10 51°16.504 2°53.324 -999 3.350307 33.07564 24.163708
2006-03-30 06:59:10 51°16.684 2°53.133 -999 3.340474 32.98234 24.365965
2006-03-30 07:00:10 51°16.863 2°52.953 -999 3.332505 32.954351 25.410956
2006-03-30 07:01:10 51°17.037 2°52.783 -999 3.333747 33.002227 24.871606
2006-03-30 07:02:10 51°17.23 2°52.647 -999 3.338406 33.116769 24.60193
2006-03-30 07:03:10 51°17.424 2°52.51 -999 3.337888 33.140133 24.703059
2006-03-30 07:04:10 51°17.624 2°52.395 -999 3.338095 33.150596 24.736768
2006-03-30 07:05:10 51°17.83 2°52.344 -999 3.34089 33.179566 24.804187
2006-03-30 07:06:10 51°18.04 2°52.324 -999 3.335508 33.143913 25.141281
2006-03-30 07:07:10 51°18.25 2°52.32 -999 3.334577 33.169161 25.2087
2006-03-30 07:08:10 51°18.459 2°52.314 -999 3.330333 33.137823 25.040153
2006-03-30 07:09:10 51°18.671 2°52.299 -999 3.32195 33.077143 25.242409
2006-03-30 07:10:10 51°18.883 2°52.282 -999 3.32195 33.094452 25.343537
2006-03-30 07:11:10 51°19.094 2°52.266 -999 3.318535 33.074023 25.579503
2006-03-30 07:12:10 51°19.306 2°52.247 -999 3.312222 33.031555 25.714341
2006-03-30 07:13:10 51°19.516 2°52.228 -999 3.308496 33.004916 25.377247
2006-03-30 07:14:10 51°19.724 2°52.212 -999 3.280967 32.789232 25.006443
2006-03-30 07:15:10 51°19.934 2°52.19 -999 3.263167 32.646316 25.478375
2006-03-30 07:16:10 51°20.145 2°52.182 -999 3.252094 32.554251 24.669349
2006-03-30 07:17:10 51°20.354 2°52.183 -999 3.261408 32.672102 24.905315
2006-03-30 07:18:10 51°20.563 2°52.178 -999 3.260063 32.677127 24.534512
2006-03-30 07:19:10 51°20.772 2°52.179 -999 3.244126 32.495634 23.759195
2006-03-30 07:20:10 51°20.98 2°52.191 -999 3.227155 32.310932 23.759195
2006-03-30 07:21:10 51°21.184 2°52.242 -999 3.219394 32.22576 23.894033
2006-03-30 07:22:10 51°21.385 2°52.308 -999 3.208736 32.112073 24.163708
2006-03-30 07:23:10 51°21.587 2°52.381 -999 3.206667 32.132884 24.399674
2006-03-30 07:24:10 51°21.783 2°52.471 -999 3.195491 32.008892 24.332255
2006-03-30 07:25:10 51°21.978 2°52.568 -999 3.183075 31.879186 24.332255
2006-03-30 07:26:10 51°22.177 2°52.66 -999 3.176039 31.792333 24.365965
2006-03-30 07:27:10 51°22.377 2°52.751 -999 3.167761 31.691805 24.467093
2006-03-30 07:28:10 51°22.576 2°52.848 -999 3.165381 31.664572 24.534512
2006-03-30 07:29:10 51°22.775 2°52.944 -999 3.161036 31.619976 24.433383
2006-03-30 07:30:10 51°22.974 2°53.048 -999 3.164864 31.647402 24.467093
2006-03-30 07:31:10 51°23.174 2°53.147 -999 3.161036 31.624374 24.60193
2006-03-30 07:32:10 51°23.37 2°53.237 -999 3.160209 31.697224 24.939024
2006-03-30 07:33:10 51°23.563 2°53.335 -999 3.149761 31.779885 24.905315
2006-03-30 07:34:10 51°23.756 2°53.437 -999 3.152865 31.838696 24.736768
2006-03-30 07:35:09 51°23.946 2°53.526 -999 3.138485 31.734216 24.905315
2006-03-30 07:36:10 51°24.139 2°53.63 -999 3.134864 31.723188 24.804187
2006-03-30 07:37:10 51°24.333 2°53.701 -999 3.129692 31.730579 24.500802
2006-03-30 07:38:10 51°24.531 2°53.762 -999 3.126588 31.731629 24.264836
2006-03-30 07:39:10 51°24.729 2°53.824 -999 3.125657 31.725661 24.129999
2006-03-30 07:40:10 51°24.924 2°53.895 -999 3.132899 31.80521 24.028871
2006-03-30 07:41:10 51°25.123 2°53.959 -999 3.131761 31.797823 24.06258
2006-03-30 07:42:10 51°25.324 2°54.026 -999 3.134554 31.809406 23.826614
2006-03-30 07:43:10 51°25.521 2°54.096 -999 3.141176 31.857649 23.860324
2006-03-30 07:44:10 51°25.722 2°54.156 -999 3.140659 31.883375 23.826614
2006-03-30 07:45:10 51°25.922 2°54.221 -999 3.142625 31.919909 23.725486
2006-03-30 07:46:10 51°26.121 2°54.274 -999 3.139831 31.908376 23.658067
2006-03-30 07:47:10 51°26.316 2°54.344 -999 3.135383 31.875498 23.48952
2006-03-30 07:48:10 51°26.512 2°54.41 -999 3.128968 31.818671 23.556939
2006-03-30 07:49:10 51°26.706 2°54.479 -999 3.129175 31.832731 23.455811
2006-03-30 07:50:10 51°26.896 2°54.548 -999 3.124003 31.806082 23.320973
2006-03-30 07:51:10 51°27.087 2°54.622 -999 3.131349 31.911498 23.287264
2006-03-30 07:52:10 51°27.28 2°54.692 -999 3.1269 31.88217 23.186136
2006-03-30 07:53:10 51°27.477 2°54.759 -999 3.128969 31.910961 23.051298
2006-03-30 07:54:10 51°27.673 2°54.825 -999 3.135902 32.023813 23.152426
2006-03-30 07:55:10 51°27.866 2°54.893 -999 3.130109 32.034059 23.152426
2006-03-30 07:56:10 51°28.06 2°54.955 -999 3.129902 32.040862 22.95017
2006-03-30 07:57:10 51°28.25 2°55.033 -999 3.12566 32.010181 22.815332
2006-03-30 07:58:10 51°28.44 2°55.107 -999 3.130523 32.06346 22.646785
2006-03-30 07:59:10 51°28.627 2°55.191 -999 3.129488 32.06181 22.511947
2006-03-30 08:00:10 51°28.816 2°55.279 -999 3.13342 32.097214 22.309691
2006-03-30 08:01:10 51°29.005 2°55.362 -999 3.136937 32.139849 22.242272
2006-03-30 08:02:10 51°29.192 2°55.456 -999 3.138696 32.161632 22.141144
2006-03-30 08:03:10 51°29.38 2°55.543 -999 3.14418 32.216462 22.107435
2006-03-30 08:04:10 51°29.573 2°55.633 -999 3.148628 32.256785 22.107435
2006-03-30 08:05:10 51°29.764 2°55.728 -999 3.153491 32.304554 22.073725
2006-03-30 08:06:10 51°29.96 2°55.809 -999 3.162803 32.414803 22.073725
2006-03-30 08:07:10 51°30.153 2°55.895 -999 3.160837 32.384174 22.073725
2006-03-30 08:08:10 51°30.347 2°55.97 -999 3.160113 32.387981 22.107435
2006-03-30 08:09:10 51°30.54 2°56.048 -999 3.160113 32.387055 22.073725
2006-03-30 08:10:10 51°30.731 2°56.135 -999 3.160734 32.395025 21.938888
2006-03-30 08:11:10 51°30.92 2°56.217 -999 3.16301 32.418076 21.871469
2006-03-30 08:12:10 51°31.107 2°56.294 -999 3.163424 32.423699 21.871469
2006-03-30 08:13:10 51°31.296 2°56.373 -999 3.155871 32.363888 22.006306
2006-03-30 08:14:10 51°31.485 2°56.457 -999 3.154733 32.358368 22.040016
2006-03-30 08:15:10 51°31.669 2°56.547 -999 3.16032 32.415328 22.006306
2006-03-30 08:16:10 51°31.852 2°56.631 -999 3.160527 32.408414 21.905178
2006-03-30 08:17:10 51°32.028 2°56.748 -999 3.166011 32.468819 21.871469
2006-03-30 08:18:11 51°32.196 2°56.912 -999 3.171908 32.534864 21.80405
2006-03-30 08:19:10 51°32.359 2°57.065 -999 3.173874 32.543244 21.80405
2006-03-30 08:20:10 51°32.523 2°57.22 -999 3.185566 32.676962 21.770341
2006-03-30 08:21:10 51°32.688 2°57.385 -999 3.190119 32.733364 21.736631
2006-03-30 08:22:10 51°32.819 2°57.612 -999 3.195913 32.778621 21.736631
2006-03-30 08:23:10 51°32.947 2°57.844 -999 3.192913 32.746404 21.770341
2006-03-30 08:24:10 51°33.086 2°58.067 -999 3.200984 32.83529 21.736631
2006-03-30 08:25:09 51°33.228 2°58.279 -999 3.199328 32.817416 21.736631
2006-03-30 08:26:10 51°33.371 2°58.502 -999 3.200777 32.818883 21.736631
2006-03-30 08:27:09 51°33.515 2°58.707 -999 3.207503 32.892471 21.702922
2006-03-30 08:28:10 51°33.659 2°58.935 -999 3.203984 32.848757 21.702922
2006-03-30 08:29:10 51°33.8 2°59.159 -999 3.207399 32.880036 21.702922
2006-03-30 08:30:10 51°33.944 2°59.369 -999 3.205122 32.860747 21.669212
2006-03-30 08:31:10 51°34.083 2°59.593 -999 3.208641 32.896953 21.635503
2006-03-30 08:32:10 51°34.225 2°59.819 -999 3.22023 33.024855 21.669212
2006-03-30 08:33:10 51°34.365 3°0.028 -999 3.208123 32.890138 21.635503
2006-03-30 08:34:10 51°34.502 3°0.244 -999 3.211124 32.920466 21.568084
2006-03-30 08:35:10 51°34.672 3°0.355 -999 3.204916 32.856521 21.500665
2006-03-30 08:36:10 51°34.855 3°0.245 -999 3.204088 32.839625 21.399537
2006-03-30 08:37:10 51°34.982 2°59.984 -999 3.207295 32.882613 21.399537
2006-03-30 08:38:10 51°34.997 2°59.646 -999 3.208123 32.891077 21.365828
2006-03-30 08:39:10 51°34.917 2°59.321 -999 3.211021 32.921169 21.298409
2006-03-30 08:40:11 51°34.783 2°59.042 -999 3.222507 33.030938 21.399537
2006-03-30 08:41:10 51°34.662 2°58.788 -999 3.219402 32.98534 21.433247
2006-03-30 08:42:10 51°34.525 2°58.496 -999 3.221058 32.993793 21.399537
2006-03-30 08:43:10 51°34.401 2°58.272 -999 3.220954 32.98698 21.399537
2006-03-30 08:44:10 51°34.291 2°58.076 -999 3.223127 33.017283 21.399537
2006-03-30 08:45:10 51°34.182 2°57.874 -999 3.2253 33.037244 21.433247
2006-03-30 08:46:10 51°34.071 2°57.669 -999 3.226956 33.056037 21.399537
2006-03-30 08:47:11 51°33.956 2°57.457 -999 3.234303 33.128125 21.399537
2006-03-30 08:48:10 51°33.845 2°57.242 -999 3.230371 33.085378 21.433247
2006-03-30 08:49:10 51°33.732 2°57.012 -999 3.226542 33.040986 21.466956
2006-03-30 08:50:10 51°33.624 2°56.784 -999 3.226852 33.051096 21.466956
2006-03-30 08:51:10 51°33.509 2°56.567 -999 3.225507 33.041475 21.433247
2006-03-30 08:52:10 51°33.389 2°56.346 -999 3.227267 33.077462 21.399537
2006-03-30 08:53:10 51°33.263 2°56.122 -999 3.224162 33.036558 21.365828
2006-03-30 08:54:10 51°33.123 2°55.924 -999 3.223748 33.019627 21.433247
2006-03-30 08:55:10 51°32.988 2°55.725 -999 3.222299 33.005066 21.433247
2006-03-30 08:56:10 51°32.851 2°55.525 -999 3.221472 32.998491 21.433247
2006-03-30 08:57:10 51°32.717 2°55.325 -999 3.220747 32.99591 21.466956
2006-03-30 08:58:10 51°32.589 2°55.131 -999 3.218988 32.969367 21.399537
2006-03-30 08:59:10 51°32.458 2°54.943 -999 3.219195 32.968898 21.433247
2006-03-30 09:00:10 51°32.31 2°54.78 -999 3.218471 32.964435 21.399537
2006-03-30 09:01:10 51°32.157 2°54.625 -999 3.220437 32.989566 21.466956
2006-03-30 09:02:10 51°32.009 2°54.476 -999 3.217643 32.952224 21.466956
2006-03-30 09:03:10 51°31.863 2°54.327 -999 3.218678 32.966783 21.466956
2006-03-30 09:04:10 51°31.708 2°54.161 -999 3.215677 32.940238 21.466956
2006-03-30 09:05:10 51°31.553 2°53.999 -999 3.215159 32.934367 21.500665
2006-03-30 09:06:10 51°31.413 2°53.852 -999 3.217332 32.956212 21.534375
2006-03-30 09:07:10 51°31.257 2°53.708 -999 3.21785 32.965841 21.568084
2006-03-30 09:08:11 51°31.097 2°53.596 -999 3.217229 32.952221 21.568084
2006-03-30 09:09:10 51°30.942 2°53.487 -999 3.219609 32.979231 21.635503
2006-03-30 09:10:10 51°30.78 2°53.366 -999 3.218264 32.9696 21.736631
2006-03-30 09:11:10 51°30.614 2°53.233 -999 3.218574 32.982522 21.837759
2006-03-30 09:12:10 51°30.451 2°53.1 -999 3.21278 32.923306 21.837759
2006-03-30 09:13:10 51°30.285 2°53.013 -999 3.214228 32.939754 21.905178
2006-03-30 09:14:10 51°30.107 2°52.929 -999 3.214642 32.939758 21.871469
2006-03-30 09:15:10 51°29.932 2°52.844 -999 3.214642 32.930372 21.938888
2006-03-30 09:16:10 51°29.763 2°52.757 -999 3.214746 32.934361 21.972597
2006-03-30 09:17:10 51°29.594 2°52.657 -999 3.213193 32.912055 21.871469
2006-03-30 09:18:10 51°29.421 2°52.556 -999 3.203466 32.799834 21.770341
2006-03-30 09:19:10 51°29.246 2°52.455 -999 3.201293 32.766788 21.635503
2006-03-30 09:20:10 51°29.07 2°52.357 -999 3.19643 32.717247 21.568084
2006-03-30 09:21:10 51°28.898 2°52.26 -999 3.195188 32.702239 21.534375
2006-03-30 09:22:10 51°28.721 2°52.16 -999 3.192602 32.682226 21.568084
2006-03-30 09:23:10 51°28.546 2°52.065 -999 3.193222 32.687402 21.568084
2006-03-30 09:24:10 51°28.377 2°51.974 -999 3.194568 32.708246 21.568084
2006-03-30 09:25:10 51°28.206 2°51.877 -999 3.190842 32.651119 21.534375
2006-03-30 09:26:10 51°28.034 2°51.782 -999 3.187842 32.598543 21.466956
2006-03-30 09:27:10 51°27.859 2°51.686 -999 3.183496 32.546553 21.433247
2006-03-30 09:28:10 51°27.682 2°51.591 -999 3.179771 32.503459 21.466956
2006-03-30 09:29:10 51°27.51 2°51.495 -999 3.178426 32.489159 21.500665
2006-03-30 09:30:10 51°27.338 2°51.405 -999 3.177391 32.482995 21.534375
2006-03-30 09:31:10 51°27.162 2°51.305 -999 3.177805 32.490455 21.568084
2006-03-30 09:32:10 51°26.982 2°51.206 -999 3.175218 32.458399 21.568084
2006-03-30 09:33:10 51°26.804 2°51.106 -999 3.17377 32.445698 21.601794
2006-03-30 09:34:10 51°26.626 2°51.009 -999 3.173045 32.443041 21.635503
2006-03-30 09:35:10 51°26.449 2°50.911 -999 3.173666 32.449146 21.669212
2006-03-30 09:36:10 51°26.273 2°50.817 -999 3.171597 32.425719 21.736631
2006-03-30 09:37:10 51°26.098 2°50.719 -999 3.17108 32.426326 21.80405
2006-03-30 09:38:10 51°25.922 2°50.617 -999 3.172942 32.454809 21.837759
2006-03-30 09:39:10 51°25.747 2°50.518 -999 3.162388 32.342682 21.80405
2006-03-30 09:40:10 51°25.572 2°50.418 -999 3.159181 32.310051 21.837759
2006-03-30 09:41:10 51°25.396 2°50.316 -999 3.156388 32.283944 21.905178
2006-03-30 09:42:10 51°25.215 2°50.207 -999 3.154939 32.273983 22.006306
2006-03-30 09:43:10 51°25.041 2°50.113 -999 3.152766 32.248461 22.040016
2006-03-30 09:44:10 51°24.864 2°50.011 -999 3.151214 32.234565 22.073725
2006-03-30 09:45:10 51°24.69 2°49.916 -999 3.150593 32.187159 22.174853
2006-03-30 09:46:10 51°24.514 2°49.81 -999 3.148316 32.100189 21.905178
2006-03-30 09:47:10 51°24.342 2°49.71 -999 3.145936 32.050569 21.938888
2006-03-30 09:48:10 51°24.166 2°49.607 -999 3.14604 32.041729 22.006306
2006-03-30 09:49:10 51°23.989 2°49.504 -999 3.14604 32.033547 22.141144
2006-03-30 09:50:10 51°23.812 2°49.401 -999 3.146453 32.020948 22.208563
2006-03-30 09:51:10 51°23.638 2°49.309 -999 3.148626 32.03543 22.309691
2006-03-30 09:52:10 51°23.456 2°49.211 -999 3.146867 32.007458 22.3434
2006-03-30 09:53:10 51°23.274 2°49.111 -999 3.15173 32.050399 22.37711
2006-03-30 09:54:10 51°23.089 2°49.014 -999 3.152557 32.04247 22.275982
2006-03-30 09:55:10 51°22.906 2°48.921 -999 3.156178 32.078672 22.275982
2006-03-30 09:56:10 51°22.721 2°48.827 -999 3.158248 32.100137 22.3434
2006-03-30 09:57:11 51°22.532 2°48.741 -999 3.164869 32.163727 22.37711
2006-03-30 09:58:10 51°22.359 2°48.655 -999 3.166939 32.172444 22.3434
2006-03-30 09:59:10 51°22.174 2°48.558 -999 3.173457 32.233004 22.511947
2006-03-30 10:00:10 51°21.985 2°48.461 -999 3.176664 32.249931 22.714204
2006-03-30 10:01:10 51°21.799 2°48.37 -999 3.180699 32.262482 22.781623
2006-03-30 10:02:10 51°21.612 2°48.271 -999 3.1867 32.302545 23.017589
2006-03-30 10:03:10 51°21.424 2°48.191 -999 3.182458 32.209523 22.983879
2006-03-30 10:04:10 51°21.228 2°48.2 -999 3.175421 32.109895 22.983879
2006-03-30 10:05:10 51°21.032 2°48.222 -999 3.171593 32.068843 23.051298
2006-03-30 10:06:10 51°20.852 2°48.361 -999 3.165902 32.007849 23.152426
2006-03-30 10:07:10 51°20.688 2°48.548 -999 3.166521 31.862429 23.320973
2006-03-30 10:08:10 51°20.519 2°48.729 -999 3.158036 31.622822 23.320973
2006-03-30 10:09:10 51°20.343 2°48.921 -999 3.144896 31.503558 23.691777
2006-03-30 10:10:10 51°20.168 2°49.105 -999 3.155241 31.50589 23.894033
2006-03-30 10:11:10 51°20.012 2°49.281 -999 3.145724 31.510977 24.096289
2006-03-30 10:12:10 51°19.863 2°49.451 -999 3.152448 31.544218 24.298546
2006-03-30 10:13:10 51°19.715 2°49.623 -999 3.164553 31.615841 24.433383
2006-03-30 10:14:10 51°19.566 2°49.795 -999 3.178935 31.718561 24.871606
2006-03-30 10:15:10 51°19.42 2°49.973 -999 3.19311 31.84342 25.512084
2006-03-30 10:16:10 51°19.271 2°50.15 -999 3.201594 31.904444 25.849178
2006-03-30 10:17:10 51°19.12 2°50.325 -999 3.204181 31.914454 25.74805
2006-03-30 10:18:10 51°18.969 2°50.503 -999 3.197558 31.808009 25.141281
2006-03-30 10:19:10 51°18.817 2°50.681 -999 3.189487 31.72 25.073862
2006-03-30 10:20:10 51°18.66 2°50.85 -999 3.182037 31.637982 24.871606
2006-03-30 10:21:10 51°18.507 2°51.027 -999 3.178623 31.599528 25.040153
2006-03-30 10:22:10 51°18.351 2°51.196 -999 3.192281 31.706119 24.837896
2006-03-30 10:23:10 51°18.195 2°51.372 -999 3.198696 31.753919 24.837896
2006-03-30 10:24:10 51°18.04 2°51.548 -999 3.218459 31.93081 25.040153
2006-03-30 10:25:10 51°17.888 2°51.729 -999 3.240811 32.124409 25.242409
2006-03-30 10:26:10 51°17.735 2°51.91 -999 3.245778 32.162183 25.545794
2006-03-30 10:27:10 51°17.577 2°52.078 -999 3.223219 31.918147 25.545794
2006-03-30 10:28:10 51°17.406 2°52.212 -999 3.211732 31.783472 25.882888
2006-03-30 10:29:10 51°17.232 2°52.34 -999 3.201488 31.689491 26.2874
2006-03-30 10:30:10 51°17.06 2°52.474 -999 3.198901 31.648973 26.354819
2006-03-30 10:31:10 51°16.887 2°52.61 -999 3.19528 31.604098 26.557076
2006-03-30 10:32:10 51°16.714 2°52.746 -999 3.200039 31.639734 26.590785
2006-03-30 10:33:10 51°16.543 2°52.889 -999 3.208835 31.720387 26.489657
2006-03-30 10:34:10 51°16.373 2°53.034 -999 3.227874 31.893942 26.118853
2006-03-30 10:35:10 51°16.203 2°53.178 -999 3.294003 32.594721 26.557076
2006-03-30 10:36:10 51°16.036 2°53.322 -999 3.32319 32.923235 26.2874
2006-03-30 10:37:10 51°15.869 2°53.466 -999 3.324536 32.934413 25.815469
2006-03-30 10:38:10 51°15.704 2°53.612 -999 3.324432 32.914357 25.680631
2006-03-30 10:39:10 51°15.539 2°53.755 -999 3.323914 32.871811 25.545794
2006-03-30 10:40:10 51°15.376 2°53.893 -999 3.30994 32.638367 25.950306
2006-03-30 10:41:10 51°15.214 2°54.035 -999 3.291725 32.459623 26.557076
2006-03-30 10:42:10 51°15.05 2°54.176 -999 3.288517 32.421902 26.658204
2006-03-30 10:43:10 51°14.891 2°54.324 -999 3.275268 32.172827 26.422238
2006-03-30 10:44:10 51°14.74 2°54.492 -999 3.263263 32.030861 27.298683
2006-03-30 10:45:10 51°14.595 2°54.681 -999 3.273509 32.111813 27.534648
2006-03-30 10:46:10 51°14.459 2°54.888 -999 3.290377 32.227107 27.062717
2006-03-30 10:47:11 51°14.348 2°55.129 -999 3.280855 32.093365 27.096426
2006-03-30 10:48:11 51°14.227 2°55.317 -999 3.24691 31.66318 27.905452
2006-03-30 10:49:11 51°14.116 2°55.413 -999 3.002541 28.848723 27.669486
2006-03-30 10:50:11 51°14.024 2°55.483 -999 2.816506 26.805645 26.86046
2006-03-30 10:51:10 51°13.946 2°55.544 -999 2.787455 26.476574 26.388529
2006-03-30 10:52:11 51°13.87 2°55.603 -999 2.827156 26.91087 25.984016
2006-03-30 10:53:11 51°13.799 2°55.666 -999 2.873581 27.441443 25.916597
2006-03-30 10:54:11 51°13.737 2°55.751 -999 2.785077 26.460862 25.714341
2006-03-30 10:55:11 51°13.683 2°55.849 -999 2.777634 26.37738 25.781759
2006-03-30 10:56:10 51°13.643 2°55.942 -999 2.817851 26.826888 37.0407
2006-03-30 10:57:10 51°13.617 2°56.025 -999 2.81692 26.816414 29.489794
2006-03-30 10:58:10 51°13.603 2°56.082 -999 2.816403 26.810278 29.523503
2006-03-30 10:59:14 51°13.598 2°56.094 -999 2.814128 26.780001 29.725759
2006-03-30 11:00:14 51°13.599 2°56.094 -999 2.814232 26.771809 30.029144